Taylorsville, Georgia
Current Conditions -  °F | °C
As of 7:53 AM on Tuesday 21 Oct 2014 (Local Time) from KVPC Reporting Station
Clear Clear  
Wind Chill: 45°   Ceiling: Unl
Heat Index: 45°   Visibility: 9mi
Dew Point: 44°   Wind: 0mph
Humidity: 97%   Direction: NA
Pressure: 30.04"   Gusts: NA
Location:  34.09°N, 84.99°W
Report Text: KVPC 211153Z AUTO 00000KT 9SM CLR 07/07 A3004 RMK AO2 SLP166 T00720067 10094 20067 51005
Loading
Personal Weather Stations






























Interactive Weather Map
Tropical Storm Tracking
New forecast layout! Learn more

10-Day Weather Forecast

Advertisements
Track Severe Weather on mobile